Weather observations for the past three days for
San Carlos Airport
| Date | Time (pdt) | Wind (kph) | Vis. (km) | Weather | Sky Cond. | Temperature (ºC) | Relative Humidity | Wind Chill (°C) | Heat Index (°C) | Pressure | Precipitation (cm) | ||||||
|---|---|---|---|---|---|---|---|---|---|---|---|---|---|---|---|---|---|
| Air | Dwpt | 6 hour | altimeter (cm) | sea level (mb) | 1 hr | 3 hr | 6 hr | ||||||||||
| Max. | Min. | ||||||||||||||||
| 10 | 10:53 | W 26 | 16.09 | Partly Cloudy | SCT017 | 16 | 11 | 72% | 76.25 | 0.0 | |||||||
| 10 | 09:53 | W 26 | 16.09 | Mostly Cloudy | BKN017 | 15 | 11 | 77% | 76.25 | 0.0 | |||||||
| 10 | 08:50 | W 22 | 16.09 | Mostly Cloudy | BKN016 | 14 | 11 | 82% | 76.25 | 0.0 | |||||||
| 10 | 07:50 | W 15 | 16.09 | Mostly Cloudy | BKN010 | 13 | 11 | 88% | 76.23 | 0.0 | |||||||
| 10 | 06:55 | Calm | 11.27 | Overcast | OVC010 | 13 | 12 | 94% | 76.2 | 0.0 | |||||||
| 10 | 06:50 | W 13 | 16.09 | Mostly Cloudy | BKN010 | 13 | 11 | 88% | 76.2 | 0.0 | |||||||
| 10 | 06:35 | Calm | 12.87 | Overcast | OVC010 | 13 | 12 | 94% | 76.17 | 0.0 | |||||||
| 10 | 06:15 | Calm | 9.66 | Fog/Mist | OVC009 | 13 | 12 | 94% | 76.17 | 0.0 | |||||||
| 10 | 05:55 | Calm | 11.27 | Overcast | BKN009 OVC013 | 13 | 12 | 94% | 76.17 | 0.0 | |||||||
| 10 | 05:35 | W 11 | 12.87 | Overcast | OVC011 | 13 | 12 | 94% | 76.17 | 0.0 | |||||||
| 10 | 05:15 | W 11 | 12.87 | Overcast | OVC010 | 13 | 12 | 94% | 76.17 | 0.0 | |||||||
| 10 | 04:55 | Calm | 12.87 | Overcast | OVC010 | 13 | 12 | 94% | 76.17 | 0.0 | |||||||
| 10 | 04:35 | W 13 | 11.27 | Overcast | OVC010 | 13 | 12 | 94% | 76.17 | 0.0 | |||||||
| 10 | 04:15 | W 11 | 12.87 | Overcast | OVC010 | 13 | 12 | 94% | 76.17 | 0.0 | |||||||
| 10 | 03:55 | W 11 | 11.27 | Overcast | OVC008 | 13 | 12 | 94% | 76.17 | 0.0 | |||||||
| 10 | 03:35 | Calm | 11.27 | Overcast | OVC008 | 13 | 12 | 94% | 76.17 | 0.0 | |||||||
| 10 | 03:15 | Calm | 9.66 | Fog/Mist | OVC008 | 13 | 12 | 94% | 76.17 | 0.0 | |||||||
| 10 | 02:55 | W 17 | 12.87 | Overcast | BKN008 BKN013 OVC017 | 12 | 12 | 100% | 76.17 | 0.0 | |||||||
| 10 | 02:35 | W 20 | 12.87 | Mostly Cloudy | BKN009 BKN015 | 12 | 11 | 94% | 76.17 | 0.0 | |||||||
| 10 | 02:15 | W 15 | 14.48 | Mostly Cloudy | BKN009 BKN014 BKN019 | 12 | 12 | 100% | 76.17 | 0.0 | |||||||
| 10 | 01:55 | W 17 G 28 | 14.48 | A Few Clouds | FEW008 FEW016 | 13 | 12 | 94% | 76.17 | 0.0 | |||||||
| 10 | 01:35 | W 17 | 14.48 | Fair | CLR | 13 | 12 | 94% | 76.17 | 0.0 | |||||||
| 10 | 01:15 | W 17 G 26 | 14.48 | Fair | CLR | 13 | 12 | 94% | 76.17 | 0.0 | |||||||
| 10 | 00:55 | W 15 | 12.87 | A Few Clouds | FEW009 | 13 | 12 | 94% | 76.17 | 0.0 | |||||||
| 10 | 00:35 | W 19 | 12.87 | A Few Clouds | FEW009 | 13 | 12 | 94% | 76.17 | 0.0 | |||||||
| 10 | 00:15 | NW 7 G 20 | 12.87 | A Few Clouds | FEW009 | 13 | 12 | 94% | 76.17 | 0.0 | |||||||
| 09 | 23:55 | NW 15 | 12.87 | Fair | CLR | 13 | 12 | 94% | 76.17 | 0.0 | |||||||
| 09 | 23:35 | W 17 | 14.48 | Fair | CLR | 13 | 12 | 94% | 76.17 | 0.0 | |||||||
| 09 | 23:15 | NW 17 | 12.87 | Fair | CLR | 13 | 12 | 94% | 76.17 | 0.0 | |||||||
| 09 | 22:55 | NW 15 G 24 | 14.48 | Fair | CLR | 13 | 12 | 94% | 76.17 | 0.0 | |||||||
| 09 | 22:35 | W 6 G 20 | 14.48 | Fair | CLR | 13 | 12 | 94% | 76.17 | 0.0 | |||||||
| 09 | 22:15 | NW 15 | 14.48 | Fair | CLR | 14 | 12 | 88% | 76.17 | 0.0 | |||||||
| 09 | 21:55 | W 13 G 28 | 12.87 | Fair | CLR | 14 | 12 | 88% | 76.17 | 0.0 | |||||||
| 09 | 21:35 | NW 17 | 14.48 | Fair | CLR | 14 | 11 | 82% | 76.15 | 0.0 | |||||||
| 09 | 21:15 | W 9 | 14.48 | Fair | CLR | 14 | 11 | 82% | 76.15 | 0.0 | |||||||
| 09 | 20:47 | W 22 | 16.09 | Clear | SKC | 14 | 10 | 77% | 76.12 | 0.0 | |||||||
| 09 | 19:47 | W 20 | 16.09 | Clear | SKC | 15 | 10 | 72% | 76.1 | 0.0 | |||||||
| 09 | 18:47 | W 22 G 33 | 16.09 | Clear | SKC | 16 | 11 | 72% | 76.1 | 0.0 | |||||||
| 09 | 17:47 | W 20 G 37 | 16.09 | Clear | SKC | 18 | 11 | 64% | 76.1 | 0.0 | |||||||
| 09 | 16:47 | W 28 G 43 | 16.09 | Clear | SKC | 18 | 11 | 64% | 76.1 | 0.0 | |||||||
| 09 | 15:53 | W 28 G 41 | 16.09 | Clear | SKC | 18 | 11 | 64% | 76.1 | 0.0 | |||||||
| 09 | 14:53 | W 28 G 41 | 16.09 | Clear | SKC | 19 | 11 | 60% | 76.12 | 0.0 | |||||||
| 09 | 13:50 | W 22 | 12.87 | Clear | SKC | 20 | 11 | 56% | 76.15 | 0.0 | |||||||
| 09 | 12:47 | W 22 | 12.87 | Clear | SKC | 21 | 11 | 53% | 76.17 | 0.0 | |||||||
| 09 | 11:47 | Vrbl 7 | 11.27 | Clear | SKC | 18 | 13 | 73% | 76.23 | 0.0 | |||||||
| 09 | 10:50 | N 15 | 9.66 | Clear with Haze | SKC | 17 | 13 | 77% | 76.25 | 0.0 | |||||||
| 09 | 08:50 | Calm | 9.66 | A Few Clouds with Haze | FEW013 | 14 | 11 | 82% | 76.25 | 0.0 | |||||||
| 09 | 07:50 | Vrbl 6 | 9.66 | A Few Clouds with Haze | FEW013 | 13 | 11 | 88% | 76.25 | 0.0 | |||||||
| 09 | 06:55 | Calm | 8.05 | Fog/Mist | SCT012 | 12 | 11 | 94% | 76.23 | 0.0 | |||||||
| 09 | 06:50 | Vrbl 6 | 8.05 | Fog/Mist | BKN010 | 12 | 10 | 88% | 76.25 | 0.0 | |||||||
| 09 | 06:35 | Calm | 8.05 | Fog/Mist | BKN010 BKN014 | 12 | 11 | 94% | 76.23 | 0.0 | |||||||
| 09 | 06:15 | Calm | 8.05 | Fog/Mist | BKN011 | 12 | 11 | 94% | 76.23 | 0.0 | |||||||
| 09 | 05:55 | Calm | 11.27 | Partly Cloudy | SCT011 | 12 | 11 | 94% | 76.2 | 0.0 | |||||||
| 09 | 05:35 | Calm | 11.27 | Mostly Cloudy | BKN011 | 12 | 11 | 94% | 76.2 | 0.0 | |||||||
| 09 | 05:15 | Calm | 11.27 | Overcast | OVC011 | 12 | 10 | 88% | 76.2 | 0.0 | |||||||
| 09 | 04:55 | Calm | 12.87 | Mostly Cloudy | BKN012 | 12 | 10 | 88% | 76.23 | 0.0 | |||||||
| 09 | 04:35 | Calm | 11.27 | Overcast | OVC012 | 12 | 10 | 88% | 76.23 | 0.0 | |||||||
| 09 | 04:15 | Calm | 12.87 | Mostly Cloudy | BKN013 | 12 | 10 | 88% | 76.23 | 0.0 | |||||||
| 09 | 03:55 | Calm | 12.87 | Fair | CLR | 12 | 10 | 88% | 76.2 | 0.0 | |||||||
| 09 | 03:35 | Calm | 12.87 | Fair | CLR | 12 | 10 | 88% | 76.23 | 0.0 | |||||||
| 09 | 03:15 | Calm | 12.87 | Fair | CLR | 12 | 10 | 88% | 76.23 | 0.0 | |||||||
| 09 | 02:55 | Calm | 11.27 | Fair | CLR | 12 | 10 | 88% | 76.23 | 0.0 | |||||||
| 09 | 02:35 | Calm | 12.87 | Fair | CLR | 12 | 10 | 88% | 76.23 | 0.0 | |||||||
| 09 | 02:15 | Calm | 12.87 | Fair | CLR | 13 | 10 | 82% | 76.25 | 0.0 | |||||||
| 09 | 01:55 | Calm | 11.27 | A Few Clouds | FEW020 | 13 | 10 | 82% | 76.25 | 0.0 | |||||||
| 09 | 01:35 | Calm | 12.87 | Fair | CLR | 13 | 10 | 82% | 76.25 | 0.0 | |||||||
| 09 | 01:15 | Calm | 12.87 | Fair | CLR | 13 | 10 | 82% | 76.28 | 0.0 | |||||||
| 09 | 00:55 | Calm | 12.87 | Fair | CLR | 13 | 10 | 82% | 76.28 | 0.0 | |||||||
| 09 | 00:35 | Calm | 12.87 | Fair | CLR | 13 | 10 | 82% | 76.28 | 0.0 | |||||||
| 09 | 00:15 | Calm | 12.87 | Fair | CLR | 13 | 10 | 82% | 76.28 | 0.0 | |||||||
| 08 | 23:55 | Calm | 12.87 | Fair | CLR | 13 | 10 | 82% | 76.28 | 0.0 | |||||||
| 08 | 23:35 | Calm | 11.27 | Fair | CLR | 13 | 10 | 82% | 76.3 | 0.0 | |||||||
| 08 | 23:15 | Calm | 12.87 | Fair | CLR | 13 | 10 | 82% | 76.3 | 0.0 | |||||||
| 08 | 22:55 | Calm | 14.48 | Fair | CLR | 14 | 10 | 77% | 76.3 | 0.0 | |||||||
| 08 | 22:35 | Calm | 12.87 | Fair | CLR | 14 | 10 | 77% | 76.33 | 0.0 | |||||||
| 08 | 22:15 | Calm | 12.87 | Fair | CLR | 14 | 10 | 77% | 76.3 | 0.0 | |||||||
| 08 | 21:55 | W 13 | 12.87 | Fair | CLR | 14 | 10 | 77% | 76.3 | 0.0 | |||||||
| 08 | 21:35 | Calm | 12.87 | Fair | CLR | 14 | 10 | 77% | 76.3 | 0.0 | |||||||
| 08 | 21:15 | NW 11 | 12.87 | Fair | CLR | 14 | 10 | 77% | 76.3 | 0.0 | |||||||
| 08 | 20:47 | W 13 | 16.09 | Clear | SKC | 14 | 9 | 72% | 76.3 | 0.0 | |||||||
| 08 | 15:50 | W 26 | 16.09 | Clear | SKC | 18 | 10 | 60% | 76.3 | 0.0 | |||||||
| 08 | 14:50 | W 24 | 16.09 | Clear | SKC | 18 | 11 | 64% | 76.38 | 0.0 | |||||||
| 08 | 13:50 | W 191 | 16.09 | Clear and Windy | SKC | 18 | 11 | 64% | 76.43 | 0.0 | |||||||
| 08 | 12:50 | W 22 | 12.87 | A Few Clouds | FEW016 | 17 | 11 | 68% | 76.45 | 0.0 | |||||||
| 08 | 11:50 | W 26 | 12.87 | Partly Cloudy | SCT016 | 16 | 11 | 72% | 76.5 | 0.0 | |||||||
| 08 | 10:50 | W 20 | 12.87 | Partly Cloudy | SCT020 | 16 | 11 | 72% | 76.53 | 0.0 | |||||||
| 08 | 09:50 | W 17 | 12.87 | Partly Cloudy | SCT017 | 14 | 9 | 72% | 76.5 | 0.0 | |||||||
| 08 | 08:50 | W 11 | 12.87 | Mostly Cloudy | BKN016 | 13 | 9 | 77% | 76.5 | 0.0 | |||||||
| 08 | 07:55 | SW 7 | 12.87 | Overcast | OVC016 | 13 | 9 | 77% | 76.5 | 0.0 | |||||||
| 08 | 06:55 | Calm | 11.27 | Mostly Cloudy | BKN016 | 13 | 10 | 82% | 76.48 | 0.0 | |||||||
| 08 | 06:47 | W 7 | 11.27 | Overcast | OVC019 | 12 | 9 | 82% | 76.48 | 0.0 | |||||||
| 08 | 06:35 | Calm | 12.87 | Overcast | OVC016 | 12 | 10 | 88% | 76.45 | 0.0 | |||||||
| 08 | 06:15 | W 11 | 12.87 | Overcast | OVC015 | 13 | 10 | 82% | 76.45 | 0.0 | |||||||
| 08 | 05:55 | Calm | 14.48 | Overcast | OVC015 | 13 | 10 | 82% | 76.45 | 0.0 | |||||||
| 08 | 05:35 | W 9 | 14.48 | Overcast | OVC015 | 13 | 10 | 82% | 76.45 | 0.0 | |||||||
| 08 | 05:15 | Calm | 14.48 | Overcast | OVC014 | 13 | 10 | 82% | 76.45 | 0.0 | |||||||
| 08 | 04:55 | Calm | 14.48 | Overcast | OVC015 | 13 | 10 | 82% | 76.45 | 0.0 | |||||||
| 08 | 04:35 | W 11 | 16.09 | Overcast | OVC015 | 13 | 10 | 82% | 76.45 | 0.0 | |||||||
| 08 | 04:15 | Calm | 14.48 | Overcast | OVC015 | 13 | 10 | 82% | 76.45 | 0.0 | |||||||
| 08 | 03:55 | Calm | 14.48 | Overcast | OVC015 | 12 | 10 | 88% | 76.45 | 0.0 | |||||||
| 08 | 03:35 | W 6 | 14.48 | Overcast | OVC015 | 12 | 10 | 88% | 76.45 | 0.0 | |||||||
| 08 | 03:15 | Calm | 12.87 | Mostly Cloudy | BKN018 | 12 | 10 | 88% | 76.43 | 0.0 | |||||||
| 08 | 02:55 | W 13 | 14.48 | A Few Clouds | FEW017 | 12 | 10 | 88% | 76.43 | 0.0 | |||||||
| 08 | 02:35 | Calm | 12.87 | Mostly Cloudy | BKN016 | 12 | 10 | 88% | 76.43 | 0.0 | |||||||
| 08 | 02:15 | W 13 | 14.48 | Overcast | OVC016 | 12 | 10 | 88% | 76.43 | 0.0 | |||||||
| 08 | 01:55 | W 9 | 14.48 | Overcast | OVC016 | 12 | 10 | 88% | 76.43 | 0.0 | |||||||
| 08 | 01:35 | NW 9 | 14.48 | Mostly Cloudy | BKN017 | 12 | 10 | 88% | 76.43 | 0.0 | |||||||
| 08 | 01:15 | NW 15 | 14.48 | A Few Clouds | FEW013 | 12 | 10 | 88% | 76.43 | 0.0 | |||||||
| 08 | 00:55 | NW 7 | 14.48 | Partly Cloudy | SCT013 SCT019 | 12 | 10 | 88% | 76.45 | 0.0 | |||||||
| 08 | 00:35 | W 11 | 12.87 | A Few Clouds | FEW014 FEW020 | 12 | 11 | 94% | 76.43 | 0.0 | |||||||
| 08 | 00:15 | W 15 | 12.87 | NULL | NULL | 12 | 11 | 94% | 76.43 | 0.0 | |||||||
| 07 | 23:55 | Calm | 12.87 | Fair | CLR | 12 | 11 | 94% | 76.43 | 0.0 | |||||||
| 07 | 23:35 | NW 9 G 20 | 14.48 | A Few Clouds | FEW019 | 12 | 11 | 94% | 76.43 | 0.0 | |||||||
| 07 | 23:15 | NW 13 | 14.48 | Partly Cloudy | SCT019 | 12 | 11 | 94% | 76.43 | 0.0 | |||||||
| 07 | 22:55 | NW 15 | 14.48 | A Few Clouds | FEW018 | 12 | 11 | 94% | 76.43 | 0.0 | |||||||
| 07 | 22:35 | NW 17 | 14.48 | Partly Cloudy | SCT018 | 12 | 11 | 94% | 76.4 | 0.0 | |||||||
| 07 | 22:15 | NW 15 | 14.48 | Fair | CLR | 13 | 11 | 88% | 76.4 | 0.0 | |||||||
| 07 | 21:55 | NW 17 G 28 | 14.48 | Fair | CLR | 13 | 11 | 88% | 76.4 | 0.0 | |||||||
| 07 | 21:35 | NW 20 | 14.48 | NULL | NULL | 13 | 11 | 88% | 76.38 | 0.0 | |||||||
| 07 | 21:15 | NW 20 | 14.48 | NULL | NULL | 0 | 0 | 0% | 76.38 | 0.0 | |||||||
| 07 | 20:53 | W 22 | 16.09 | Clear | SKC | 13 | 11 | 88% | 76.35 | 0.0 | |||||||
| 07 | 18:59 | W 24 | 16.09 | Clear | SKC | 16 | 11 | 72% | 76.28 | 0.0 | |||||||
| 07 | 17:47 | W 26 | 16.09 | Clear | SKC | 18 | 10 | 60% | 76.28 | 0.0 | |||||||
| 07 | 15:47 | N 17 G 31 | 16.09 | Clear | SKC | 18 | 13 | 73% | 76.33 | 0.0 | |||||||
| 07 | 14:47 | N 15 | 16.09 | Clear | SKC | 18 | 13 | 73% | 76.38 | 0.0 | |||||||
| 07 | 13:47 | N 20 | 16.09 | Clear | SKC | 17 | 13 | 77% | 76.43 | 0.0 | |||||||
| 07 | 12:47 | N 17 | 16.09 | Clear | SKC | 17 | 13 | 77% | 76.45 | 0.0 | |||||||
| 07 | 11:45 | N 15 | 16.09 | A Few Clouds | FEW019 | 17 | 12 | 73% | 76.5 | 0.0 | |||||||
| Date | Time (pdt) | Wind (kph) | Vis. (km) | Weather | Sky Cond. | Air | Dwpt | Max. | Min. | Relative Humidity | Wind Chill (°C) | Heat Index (°C) | altimeter (cm) | sea level (mb) | 1 hr | 3 hr | 6 hr |
| 6 hour | |||||||||||||||||
| Temperature (ºC) | Pressure | Precipitation (cm) | |||||||||||||||